Time;durP1;ratioP1;P1;durP2;ratioP2;P2;SDS_P1;SDS_P2;PMS_P1;PMS_P2;Temp;Humidity;BMP_temperature;BMP_pressure;BME280_temperature;BME280_humidity;BME280_pressure;Samples;Min_cycle;Max_cycle;Signal;HPM_P1;HPM_P2
2023/05/24 00:01:48;;;;;;;20.23;11.00;;;;;;;16.46;76.49;100435.47;4992458;28;20050;-90
2023/05/24 00:04:13;;;;;;;16.80;11.32;;;;;;;16.53;76.59;100433.81;4993770;28;20030;-90
2023/05/24 00:06:40;;;;;;;23.95;10.75;;;;;;;16.54;76.88;100443.66;4994950;28;20036;-89
2023/05/24 00:09:06;;;;;;;22.52;11.30;;;;;;;16.60;76.30;100438.44;4994702;28;20050;-89
2023/05/24 00:11:32;;;;;;;25.92;10.27;;;;;;;16.63;76.26;100429.97;4978417;28;20026;-89
2023/05/24 00:13:58;;;;;;;19.75;11.73;;;;;;;16.52;76.26;100430.22;4977583;28;20053;-89
2023/05/24 00:16:23;;;;;;;31.25;11.90;;;;;;;16.56;76.92;100436.22;4978516;28;20042;-88
2023/05/24 00:18:49;;;;;;;21.90;11.38;;;;;;;16.44;76.82;100415.81;4995913;28;20076;-91
2023/05/24 00:21:15;;;;;;;18.85;10.98;;;;;;;16.31;77.04;100413.56;4996965;28;20046;-89
2023/05/24 00:23:42;;;;;;;16.88;10.90;;;;;;;16.40;77.54;100431.56;4997564;28;20023;-87
2023/05/24 00:26:08;;;;;;;20.40;12.40;;;;;;;16.42;77.85;100443.09;4999144;28;20030;-89
2023/05/24 00:28:34;;;;;;;23.55;10.73;;;;;;;16.28;77.56;100412.06;4998114;28;20137;-89
2023/05/24 00:31:00;;;;;;;19.67;11.40;;;;;;;16.33;77.56;100430.53;4996650;28;20391;-90
2023/05/24 00:33:27;;;;;;;22.73;11.65;;;;;;;16.17;78.42;100425.94;4986471;28;20030;-89
2023/05/24 00:35:55;;;;;;;20.35;11.88;;;;;;;16.05;79.04;100411.00;4995997;28;20064;-88
2023/05/24 00:38:27;;;;;;;25.83;12.07;;;;;;;16.23;79.24;100433.41;5001737;28;20113;-88
2023/05/24 00:40:55;;;;;;;19.23;12.38;;;;;;;16.15;79.22;100421.66;5003353;28;20466;-88
2023/05/24 00:43:21;;;;;;;27.52;12.05;;;;;;;16.14;79.30;100426.28;5009598;28;20038;-87
2023/05/24 00:45:46;;;;;;;28.80;12.30;;;;;;;16.16;78.89;100417.94;5010526;28;20034;-88
2023/05/24 00:48:13;;;;;;;20.10;11.95;;;;;;;16.26;79.07;100435.81;5003716;28;20335;-87
2023/05/24 00:50:39;;;;;;;20.83;10.98;;;;;;;16.18;78.80;100422.19;4996472;28;20116;-90
2023/05/24 00:53:06;;;;;;;25.98;13.77;;;;;;;16.31;79.21;100433.44;4977791;28;20144;-88
2023/05/24 00:55:33;;;;;;;25.17;12.45;;;;;;;16.27;78.58;100413.06;4995056;28;20030;-88
2023/05/24 00:57:59;;;;;;;20.75;12.55;;;;;;;16.24;78.55;100416.09;4996312;28;20030;-89
2023/05/24 01:00:28;;;;;;;25.70;11.95;;;;;;;16.22;78.27;100412.72;4997336;28;20041;-90
2023/05/24 01:02:53;;;;;;;30.80;13.30;;;;;;;16.22;78.39;100415.44;5002153;28;20010;-89
2023/05/24 01:05:20;;;;;;;31.05;13.00;;;;;;;16.21;79.22;100424.56;4975118;28;20058;-89
2023/05/24 01:08:17;;;;;;;46.15;18.55;;;;;;;16.20;79.46;100424.75;4987496;28;20074;-90
2023/05/24 01:10:58;;;;;;;27.92;17.70;;;;;;;16.31;79.65;100438.84;4935863;29;20072;-89
2023/05/24 01:13:32;;;;;;;44.72;19.15;;;;;;;16.29;79.59;100435.47;4935792;29;20027;-89
2023/05/24 01:16:09;;;;;;;63.53;19.15;;;;;;;16.24;79.85;100416.09;4918447;29;20184;-89
2023/05/24 01:18:40;;;;;;;41.20;22.70;;;;;;;16.37;79.31;100425.63;4937134;29;20107;-90
2023/05/24 01:21:11;;;;;;;40.17;21.77;;;;;;;16.44;79.46;100437.53;4935331;29;20082;-88
2023/05/24 01:23:43;;;;;;;47.00;22.48;;;;;;;16.45;78.70;100440.06;4934239;29;20031;-89
2023/05/24 01:26:25;;;;;;;46.25;25.80;;;;;;;16.43;78.87;100436.66;4934490;29;20070;-90
2023/05/24 01:28:52;;;;;;;55.53;26.80;;;;;;;16.38;78.78;100417.34;4934317;29;20040;-89
2023/05/24 01:31:19;;;;;;;46.50;31.15;;;;;;;16.39;78.97;100437.19;4934505;29;20050;-89
2023/05/24 01:33:44;;;;;;;59.40;34.38;;;;;;;16.45;79.40;100444.66;4935268;29;20040;-88
2023/05/24 01:36:10;;;;;;;71.38;39.25;;;;;;;16.46;79.60;100441.75;4928733;29;20547;-88
2023/05/24 01:38:37;;;;;;;90.38;41.10;;;;;;;16.34;79.71;100422.25;4956402;29;20095;-88
2023/05/24 01:41:32;;;;;;;59.13;37.78;;;;;;;16.50;80.06;100447.72;4977712;28;20027;-89
2023/05/24 01:44:36;;;;;;;63.30;38.47;;;;;;;16.49;80.12;100424.28;4973269;28;20126;-90
2023/05/24 01:47:19;;;;;;;54.65;37.03;;;;;;;16.50;80.36;100431.41;4928398;29;20043;-90
2023/05/24 01:49:50;;;;;;;55.92;36.22;;;;;;;16.43;79.92;100412.25;4954646;29;20038;-90
2023/05/24 01:52:21;;;;;;;64.60;35.55;;;;;;;16.57;80.01;100437.94;4922038;29;20070;-90
2023/05/24 01:54:55;;;;;;;65.32;35.30;;;;;;;16.41;80.70;100418.84;4937577;29;20119;-89
2023/05/24 01:57:23;;;;;;;54.47;35.00;;;;;;;16.52;80.94;100451.09;4954275;29;20071;-89
2023/05/24 01:59:50;;;;;;;64.03;35.50;;;;;;;16.40;80.81;100419.84;4953919;29;20035;-89
2023/05/24 02:02:16;;;;;;;62.05;37.00;;;;;;;16.49;80.97;100429.72;4954288;29;20047;-90
2023/05/24 02:04:42;;;;;;;51.45;35.83;;;;;;;16.54;80.95;100430.09;4938227;29;20101;-89
2023/05/24 02:07:08;;;;;;;59.08;36.88;;;;;;;16.50;80.67;100424.13;4945194;29;20150;-89
2023/05/24 02:09:33;;;;;;;51.42;33.95;;;;;;;16.47;80.91;100420.91;4977636;28;20027;-88
2023/05/24 02:11:59;;;;;;;52.83;34.40;;;;;;;16.54;80.55;100432.78;4961578;28;20090;-89
2023/05/24 02:14:25;;;;;;;48.95;33.53;;;;;;;16.57;80.56;100438.78;4977963;28;20055;-88
2023/05/24 02:16:50;;;;;;;44.33;32.55;;;;;;;16.36;80.67;100418.53;4978049;28;20078;-92
2023/05/24 02:19:16;;;;;;;55.97;33.17;;;;;;;16.47;80.88;100437.19;4957608;28;20038;-90
2023/05/24 02:21:43;;;;;;;62.75;35.28;;;;;;;16.49;80.80;100446.00;4949731;29;20115;-89
2023/05/24 02:24:11;;;;;;;44.22;32.10;;;;;;;16.46;80.74;100430.06;4989582;28;20109;-89
2023/05/24 02:26:37;;;;;;;47.40;29.77;;;;;;;16.39;80.54;100424.44;4993913;28;20034;-89
2023/05/24 02:29:03;;;;;;;47.13;28.95;;;;;;;16.48;80.28;100433.47;4995019;28;20026;-89
2023/05/24 02:31:29;;;;;;;88.03;31.20;;;;;;;16.56;80.08;100447.94;4997245;28;20041;-89
2023/05/24 02:33:56;;;;;;;61.78;30.73;;;;;;;16.56;80.59;100449.78;4996043;28;20038;-89
2023/05/24 02:36:22;;;;;;;50.88;28.85;;;;;;;16.49;80.26;100433.28;4985373;28;20049;-88
2023/05/24 02:38:48;;;;;;;147.23;34.63;;;;;;;16.45;80.28;100453.63;4996382;28;20047;-87
2023/05/24 02:41:16;;;;;;;78.95;30.40;;;;;;;16.50;80.35;100447.72;4986450;28;20046;-89
2023/05/24 02:43:43;;;;;;;44.65;26.67;;;;;;;16.53;80.34;100444.66;4971746;28;20046;-89
2023/05/24 02:46:08;;;;;;;53.25;28.05;;;;;;;16.61;80.46;100448.25;4971923;28;20048;-89
2023/05/24 02:48:34;;;;;;;49.58;28.45;;;;;;;16.61;80.28;100448.25;4972105;28;20562;-89
2023/05/24 02:51:02;;;;;;;42.25;29.48;;;;;;;16.57;80.33;100438.78;4972096;28;20057;-90
2023/05/24 02:53:30;;;;;;;48.53;30.65;;;;;;;16.66;80.29;100459.50;4982852;28;20030;-89
2023/05/24 02:55:56;;;;;;;63.70;35.25;;;;;;;16.63;80.08;100453.53;4995789;28;20035;-87
2023/05/24 02:58:22;;;;;;;43.95;32.40;;;;;;;16.78;80.18;100468.16;4996559;28;20026;-88
2023/05/24 03:00:48;;;;;;;60.13;33.92;;;;;;;16.76;80.34;100459.31;4996181;28;20038;-89
2023/05/24 03:03:13;;;;;;;54.95;33.17;;;;;;;16.63;80.08;100438.09;4995900;28;20023;-89
2023/05/24 03:05:39;;;;;;;65.35;34.58;;;;;;;16.70;80.55;100443.69;4994268;28;20035;-87
2023/05/24 03:08:05;;;;;;;58.25;35.33;;;;;;;16.88;80.76;100469.66;4976592;28;20073;-90
2023/05/24 03:10:30;;;;;;;56.95;35.97;;;;;;;16.86;80.81;100460.84;4972888;28;20097;-88
2023/05/24 03:12:56;;;;;;;64.07;39.38;;;;;;;16.97;80.57;100469.69;4978040;28;20030;-89
2023/05/24 03:15:22;;;;;;;68.22;42.97;;;;;;;16.94;80.58;100460.00;5012793;28;20399;-89
2023/05/24 03:17:47;;;;;;;67.25;43.25;;;;;;;16.98;80.46;100458.66;5013483;28;20022;-89
2023/05/24 03:20:14;;;;;;;76.32;42.67;;;;;;;17.09;80.30;100454.75;5013386;28;20129;-90
2023/05/24 03:22:40;;;;;;;69.53;45.15;;;;;;;17.21;79.98;100464.25;5014505;28;20056;-89
2023/05/24 03:25:07;;;;;;;78.28;49.20;;;;;;;17.19;80.03;100472.56;5014629;28;20108;-89
2023/05/24 03:27:33;;;;;;;75.70;47.70;;;;;;;17.24;79.87;100464.75;5021500;28;20026;-85
2023/05/24 03:29:58;;;;;;;86.82;50.30;;;;;;;17.13;79.65;100435.19;5003812;28;20120;-88
2023/05/24 03:32:24;;;;;;;74.28;51.28;;;;;;;17.19;79.59;100456.25;5022855;28;20052;-88
2023/05/24 03:34:49;;;;;;;79.25;48.38;;;;;;;17.24;79.48;100453.88;5034448;28;20049;-87
2023/05/24 03:37:15;;;;;;;72.10;46.97;;;;;;;17.27;79.74;100464.41;5030785;28;20034;-89
2023/05/24 03:39:40;;;;;;;74.65;50.65;;;;;;;17.12;79.57;100433.53;5011886;28;20057;-89
2023/05/24 03:42:06;;;;;;;88.07;49.65;;;;;;;17.22;79.81;100455.91;5012596;28;20025;-90
2023/05/24 03:44:31;;;;;;;66.07;46.78;;;;;;;17.24;79.72;100459.31;5012288;28;20109;-89
2023/05/24 03:46:57;;;;;;;92.18;49.40;;;;;;;17.29;79.69;100465.09;5011922;28;20112;-90
2023/05/24 03:49:22;;;;;;;91.57;49.30;;;;;;;17.25;80.07;100463.72;5011781;28;20028;-90
2023/05/24 03:51:48;;;;;;;81.18;49.25;;;;;;;17.18;79.95;100457.28;5012405;28;20442;-81
2023/05/24 03:54:13;;;;;;;75.38;48.83;;;;;;;17.36;80.03;100457.94;5015152;28;20028;-81
2023/05/24 03:56:38;;;;;;;71.80;49.53;;;;;;;17.40;79.76;100463.84;5014804;28;20026;-81
2023/05/24 03:59:04;;;;;;;94.85;50.45;;;;;;;17.58;79.22;100477.31;5014509;28;20018;-79
2023/05/24 04:01:35;;;;;;;73.70;50.65;;;;;;;17.55;78.96;100455.91;5014192;28;20073;-80
2023/05/24 04:04:01;;;;;;;85.07;50.63;;;;;;;17.57;78.85;100467.44;5014780;28;20033;-81
2023/05/24 04:06:28;;;;;;;86.95;50.03;;;;;;;17.66;78.92;100475.41;5014911;28;20473;-85
2023/05/24 04:08:58;;;;;;;64.63;45.70;;;;;;;17.70;78.19;100478.63;5006551;28;20531;-82
2023/05/24 04:11:26;;;;;;;68.00;46.10;;;;;;;17.69;78.26;100479.66;5012248;28;20046;-86
2023/05/24 04:13:54;;;;;;;79.93;46.50;;;;;;;17.63;78.46;100470.31;5014196;28;20159;-90
2023/05/24 04:16:22;;;;;;;155.60;55.35;;;;;;;17.80;78.33;100487.44;5017600;28;20592;-80
2023/05/24 04:18:49;;;;;;;83.93;47.72;;;;;;;17.67;78.34;100470.81;5010476;28;20053;-81
2023/05/24 04:21:15;;;;;;;107.95;47.38;;;;;;;17.74;78.31;100477.25;5010577;28;20038;-84
2023/05/24 04:23:40;;;;;;;85.63;48.35;;;;;;;17.81;78.22;100489.13;5011954;28;20038;-84
2023/05/24 04:26:06;;;;;;;88.70;48.90;;;;;;;17.53;78.39;100455.16;5012177;28;20493;-84
2023/05/24 04:28:32;;;;;;;100.22;53.58;;;;;;;17.78;78.28;100482.19;4997104;28;20049;-81
2023/05/24 04:30:58;;;;;;;78.10;53.90;;;;;;;17.84;78.77;100497.81;4992349;28;20198;-81
2023/05/24 04:33:24;;;;;;;114.10;56.60;;;;;;;17.99;78.40;100492.47;4995673;28;20045;-86
2023/05/24 04:35:49;;;;;;;81.97;55.03;;;;;;;18.11;77.82;100495.66;4991902;28;20030;-81
2023/05/24 04:38:15;;;;;;;86.45;52.88;;;;;;;18.14;77.46;100489.84;4990981;28;20159;-82
2023/05/24 04:40:40;;;;;;;73.55;49.55;;;;;;;18.22;76.90;100485.25;4990681;28;20030;-83
2023/05/24 04:43:07;;;;;;;83.43;49.90;;;;;;;18.32;76.28;100490.44;4994254;28;20042;-87
2023/05/24 04:45:33;;;;;;;80.82;47.38;;;;;;;18.20;76.06;100468.22;4993370;28;20061;-84
2023/05/24 04:47:59;;;;;;;88.57;47.53;;;;;;;18.30;76.46;100501.53;4992954;28;20030;-86
2023/05/24 04:50:24;;;;;;;82.43;47.33;;;;;;;18.37;76.53;100496.22;4993750;28;20109;-83
2023/05/24 04:52:50;;;;;;;65.68;45.83;;;;;;;18.43;76.51;100484.63;4995140;28;20034;-86
2023/05/24 04:55:15;;;;;;;87.43;45.55;;;;;;;18.46;76.41;100490.56;4994872;28;20070;-86
2023/05/24 04:57:41;;;;;;;72.38;46.35;;;;;;;18.54;76.50;100491.56;4994935;28;20030;-79
2023/05/24 05:00:07;;;;;;;71.93;46.95;;;;;;;18.58;76.33;100484.72;4992399;28;20031;-82
2023/05/24 05:02:33;;;;;;;110.40;50.55;;;;;;;18.72;76.17;100489.41;4992475;28;20062;-84
2023/05/24 05:04:58;;;;;;;119.18;52.03;;;;;;;18.79;75.94;100487.66;4991720;28;20405;-83
2023/05/24 05:07:24;;;;;;;82.20;49.72;;;;;;;18.90;75.69;100481.75;4997190;28;20026;-83
2023/05/24 05:09:49;;;;;;;81.43;48.58;;;;;;;19.02;75.19;100486.63;5012159;28;20481;-84
2023/05/24 05:12:14;;;;;;;80.75;51.20;;;;;;;19.25;74.41;100497.50;5012260;28;20034;-84
2023/05/24 05:14:40;;;;;;;95.97;50.65;;;;;;;19.32;74.05;100476.66;5011963;28;20103;-84
2023/05/24 05:17:06;;;;;;;109.72;52.50;;;;;;;19.48;73.67;100487.41;5011043;28;20544;-83
2023/05/24 05:19:31;;;;;;;83.22;53.67;;;;;;;19.48;73.09;100476.50;5012033;28;20026;-84
2023/05/24 05:21:57;;;;;;;79.18;55.00;;;;;;;19.49;73.14;100489.13;5011980;28;20100;-81
2023/05/24 05:24:22;;;;;;;83.97;53.40;;;;;;;19.64;72.99;100491.88;5012035;28;20069;-82
2023/05/24 05:26:48;;;;;;;78.88;50.42;;;;;;;19.69;72.43;100488.59;5017542;28;20401;-81
2023/05/24 05:29:13;;;;;;;82.22;50.45;;;;;;;19.80;72.21;100490.84;5014656;28;20052;-82
2023/05/24 05:31:39;;;;;;;94.65;54.88;;;;;;;19.89;71.73;100485.13;5012603;28;20111;-82
2023/05/24 05:34:08;;;;;;;124.53;55.33;;;;;;;20.09;71.42;100496.28;5012387;28;20026;-83
2023/05/24 05:36:39;;;;;;;92.82;49.30;;;;;;;20.24;70.91;100494.44;5012474;28;20034;-82
2023/05/24 05:39:05;;;;;;;104.85;55.22;;;;;;;20.34;70.42;100488.66;5011623;28;20022;-82
2023/05/24 05:41:30;;;;;;;97.00;49.50;;;;;;;20.48;69.78;100499.59;5015463;28;20405;-89
2023/05/24 05:43:56;;;;;;;103.45;57.22;;;;;;;20.54;69.37;100503.44;5014972;28;20049;-90
2023/05/24 05:46:21;;;;;;;95.10;52.45;;;;;;;20.60;68.94;100464.41;5019043;28;20022;-93
2023/05/24 05:48:47;;;;;;;95.40;52.28;;;;;;;20.96;67.81;100488.97;5019463;28;20042;-89
2023/05/24 05:51:12;;;;;;;99.60;54.08;;;;;;;21.14;67.24;100492.09;5000289;28;20037;-82
2023/05/24 05:53:38;;;;;;;111.60;57.78;;;;;;;21.28;66.65;100488.47;4998044;28;20040;-83
2023/05/24 05:56:03;;;;;;;123.82;54.00;;;;;;;21.37;66.25;100479.06;4995571;28;20071;-83
2023/05/24 05:58:29;;;;;;;98.53;52.45;;;;;;;21.59;65.51;100490.78;5012902;28;20036;-84
2023/05/24 06:00:55;;;;;;;89.97;52.70;;;;;;;21.63;65.27;100478.41;5013471;28;20050;-85
2023/05/24 06:03:20;;;;;;;102.43;50.67;;;;;;;21.73;64.65;100486.28;5012203;28;20110;-87
2023/05/24 06:05:45;;;;;;;89.93;47.22;;;;;;;21.93;64.33;100498.22;5017209;28;20113;-91
2023/05/24 06:08:11;;;;;;;78.40;47.03;;;;;;;21.97;63.89;100499.50;5017231;28;20033;-92
2023/05/24 06:10:36;;;;;;;78.40;42.65;;;;;;;22.12;64.02;100492.00;5020235;28;20544;-90
2023/05/24 06:13:03;;;;;;;82.38;43.53;;;;;;;22.42;62.76;100503.53;5032544;28;20048;-90
2023/05/24 06:15:29;;;;;;;71.88;35.97;;;;;;;22.55;61.66;100507.19;5033801;28;20022;-89
2023/05/24 06:17:54;;;;;;;65.00;32.53;;;;;;;22.77;61.31;100497.81;5038005;28;20022;-90
2023/05/24 06:20:20;;;;;;;60.10;32.83;;;;;;;23.11;60.38;100502.31;5036293;28;20042;-89
2023/05/24 06:22:48;;;;;;;71.57;22.50;;;;;;;23.11;59.07;100504.19;5035714;28;20041;-89
2023/05/24 06:25:17;;;;;;;67.90;19.83;;;;;;;23.25;58.17;100516.84;5028182;28;20544;-84
2023/05/24 06:27:43;;;;;;;39.97;21.67;;;;;;;23.27;56.87;100504.63;5021231;28;20037;-87
2023/05/24 06:30:09;;;;;;;41.88;25.58;;;;;;;22.92;58.03;100503.09;5030454;28;20052;-88
2023/05/24 06:32:34;;;;;;;45.47;25.77;;;;;;;22.82;58.50;100501.78;5022150;28;20018;-87
2023/05/24 06:35:00;;;;;;;33.42;18.30;;;;;;;22.84;58.39;100514.28;5027114;28;20038;-85
2023/05/24 06:37:25;;;;;;;29.02;16.63;;;;;;;22.55;58.17;100509.06;5030906;28;20108;-85
2023/05/24 06:39:51;;;;;;;32.33;16.35;;;;;;;22.48;58.89;100517.25;5028346;28;20285;-85
2023/05/24 06:42:16;;;;;;;66.28;17.40;;;;;;;22.32;59.09;100497.59;5034672;28;20013;-85
2023/05/24 06:44:42;;;;;;;44.72;18.55;;;;;;;22.29;58.89;100504.34;5031406;28;20450;-80
2023/05/24 06:47:08;;;;;;;25.17;11.27;;;;;;;22.08;59.26;100493.44;5048799;28;20029;-89
2023/05/24 06:49:33;;;;;;;22.70;10.55;;;;;;;21.88;58.74;100490.63;5036177;28;20025;-91
2023/05/24 06:51:59;;;;;;;32.97;12.30;;;;;;;21.68;59.85;100512.34;5000903;28;20049;-78
2023/05/24 06:54:24;;;;;;;124.43;21.63;;;;;;;21.73;60.54;100519.13;5010378;28;20428;-91
2023/05/24 06:56:50;;;;;;;110.38;17.50;;;;;;;21.68;60.41;100517.81;4994386;28;20488;-85
2023/05/24 06:59:15;;;;;;;34.97;13.13;;;;;;;21.55;60.39;100504.06;5009830;28;20049;-89
2023/05/24 07:01:42;;;;;;;48.70;12.57;;;;;;;21.54;60.79;100516.03;5009221;28;20107;-82
2023/05/24 07:04:08;;;;;;;31.73;14.35;;;;;;;21.38;60.99;100530.00;5009987;28;20141;-89
2023/05/24 07:06:36;;;;;;;39.17;15.38;;;;;;;21.34;60.83;100511.44;5009834;28;20041;-89
2023/05/24 07:09:02;;;;;;;23.58;15.85;;;;;;;21.34;61.65;100527.88;5009096;28;20497;-83
2023/05/24 07:11:27;;;;;;;53.65;26.33;;;;;;;21.54;62.15;100529.72;5012452;28;20030;-80
2023/05/24 07:13:53;;;;;;;19.33;14.02;;;;;;;21.65;61.86;100525.56;5020232;28;20044;-81
2023/05/24 07:16:18;;;;;;;55.70;17.05;;;;;;;21.76;61.50;100521.47;5011588;28;20136;-84
2023/05/24 07:18:49;;;;;;;32.00;18.55;;;;;;;21.46;62.15;100529.88;5012257;28;20121;-79
2023/05/24 07:21:15;;;;;;;26.13;15.70;;;;;;;21.21;63.24;100525.00;5009277;28;20088;-77
2023/05/24 07:23:40;;;;;;;61.15;17.15;;;;;;;20.97;63.32;100507.06;5009234;28;20098;-77
2023/05/24 07:26:07;;;;;;;42.53;16.30;;;;;;;21.13;63.55;100525.97;5009881;28;20572;-79
2023/05/24 07:28:36;;;;;;;31.83;16.85;;;;;;;21.20;64.42;100535.09;5009069;28;20026;-77
2023/05/24 07:31:02;;;;;;;30.35;16.08;;;;;;;21.10;63.85;100540.03;5009210;28;20045;-77
2023/05/24 07:33:27;;;;;;;27.98;19.30;;;;;;;20.89;64.48;100520.84;5009364;28;20030;-77
2023/05/24 07:35:53;;;;;;;29.38;17.30;;;;;;;21.09;64.91;100535.63;5008772;28;20037;-77
2023/05/24 07:38:20;;;;;;;27.40;17.08;;;;;;;21.15;64.33;100532.09;5012572;28;20049;-81
2023/05/24 07:40:45;;;;;;;37.22;18.95;;;;;;;21.15;64.65;100537.56;5009975;28;20044;-76
2023/05/24 07:43:11;;;;;;;30.85;19.25;;;;;;;21.14;65.71;100535.88;5009064;28;20057;-77
2023/05/24 07:45:36;;;;;;;45.63;25.40;;;;;;;21.10;65.83;100529.94;5009316;28;20113;-78
2023/05/24 07:48:02;;;;;;;77.43;23.52;;;;;;;21.22;65.94;100535.75;5009029;28;20026;-78
2023/05/24 07:50:28;;;;;;;34.08;18.60;;;;;;;21.38;65.90;100549.16;5009273;28;20556;-87
2023/05/24 07:52:55;;;;;;;53.05;23.17;;;;;;;21.37;65.92;100542.00;5009318;28;20030;-81
2023/05/24 07:55:20;;;;;;;75.55;26.98;;;;;;;21.32;66.75;100541.72;5009241;28;20029;-79
2023/05/24 07:57:46;;;;;;;42.03;22.85;;;;;;;21.46;66.78;100535.34;5009284;28;20088;-75
2023/05/24 08:00:15;;;;;;;105.03;32.85;;;;;;;21.29;66.42;100533.91;5009417;28;20472;-78
2023/05/24 08:02:42;;;;;;;45.28;24.15;;;;;;;21.31;66.16;100540.06;5027932;28;20061;-78
2023/05/24 08:05:11;;;;;;;40.60;25.95;;;;;;;21.22;66.53;100533.03;5028747;28;20041;-78
2023/05/24 08:07:37;;;;;;;74.97;28.67;;;;;;;21.21;66.76;100542.25;5022015;28;20034;-79
2023/05/24 08:10:03;;;;;;;44.20;24.10;;;;;;;21.12;66.70;100524.28;5009137;28;20034;-77
2023/05/24 08:12:31;;;;;;;61.67;24.02;;;;;;;21.28;66.80;100548.66;5009503;28;20057;-81
2023/05/24 08:14:57;;;;;;;40.15;22.38;;;;;;;21.23;65.29;100545.63;5008930;28;20058;-79
2023/05/24 08:17:22;;;;;;;54.78;20.58;;;;;;;21.26;65.43;100538.94;5010691;28;20057;-78
2023/05/24 08:19:48;;;;;;;29.58;17.17;;;;;;;21.35;64.01;100543.22;5013186;28;20496;-76
2023/05/24 08:22:14;;;;;;;25.35;16.98;;;;;;;21.16;64.93;100536.50;5009511;28;20022;-78
2023/05/24 08:24:40;;;;;;;31.58;14.77;;;;;;;21.30;64.40;100543.81;5008232;28;20069;-78
2023/05/24 08:27:06;;;;;;;25.77;12.40;;;;;;;21.34;62.77;100547.03;5010052;28;20068;-77
2023/05/24 08:29:32;;;;;;;17.67;8.30;;;;;;;21.00;61.51;100520.34;5010654;28;20061;-91
2023/05/24 08:31:57;;;;;;;26.35;11.80;;;;;;;20.88;63.14;100546.50;5009873;28;20065;-79
2023/05/24 08:34:23;;;;;;;23.80;8.90;;;;;;;21.12;63.00;100535.22;4993044;28;20525;-81
2023/05/24 08:36:48;;;;;;;30.50;12.30;;;;;;;21.28;62.74;100545.91;5011110;28;20022;-87
2023/05/24 08:39:14;;;;;;;49.85;16.73;;;;;;;21.38;62.59;100553.78;5013902;28;21187;-83
2023/05/24 08:41:40;;;;;;;41.75;17.70;;;;;;;21.25;63.60;100551.78;5017314;28;20029;-87
2023/05/24 08:44:06;;;;;;;35.45;16.70;;;;;;;21.11;64.03;100539.00;5017746;28;20132;-82
2023/05/24 08:46:36;;;;;;;34.25;19.98;;;;;;;21.02;65.99;100548.34;5014457;28;20087;-80
2023/05/24 08:49:02;;;;;;;28.70;19.98;;;;;;;20.78;66.20;100551.44;5013725;28;20498;-79
2023/05/24 08:51:31;;;;;;;21.65;16.92;;;;;;;20.90;65.67;100556.22;5019038;28;20026;-85
2023/05/24 08:53:59;;;;;;;30.08;16.00;;;;;;;20.94;65.98;100559.41;4996537;28;20049;-79
2023/05/24 08:56:25;;;;;;;30.08;19.80;;;;;;;21.02;66.33;100560.13;5017225;28;20022;-83
2023/05/24 08:58:52;;;;;;;27.30;16.10;;;;;;;21.19;65.73;100563.50;5016453;28;20068;-87
2023/05/24 09:01:18;;;;;;;32.55;18.58;;;;;;;21.20;65.62;100570.66;5015339;28;20054;-87
2023/05/24 09:03:47;;;;;;;40.85;18.55;;;;;;;21.11;65.77;100585.50;4979353;28;20049;-83
2023/05/24 09:06:16;;;;;;;30.83;18.90;;;;;;;21.07;65.99;100570.47;5013197;28;20042;-84
2023/05/24 09:08:42;;;;;;;35.20;22.52;;;;;;;21.02;66.44;100570.22;5012413;28;20029;-83
2023/05/24 09:11:08;;;;;;;40.50;20.70;;;;;;;21.06;67.13;100583.31;5018797;28;20026;-89
2023/05/24 09:13:36;;;;;;;31.77;19.45;;;;;;;20.91;67.33;100570.72;5028802;28;20471;-83
2023/05/24 09:16:02;;;;;;;40.30;18.23;;;;;;;21.15;66.94;100576.72;5020880;28;20467;-82
2023/05/24 09:18:28;;;;;;;30.75;19.02;;;;;;;21.39;65.67;100588.31;5012985;28;20116;-83
2023/05/24 09:20:54;;;;;;;26.85;17.88;;;;;;;21.45;65.14;100588.38;5013297;28;20069;-85
2023/05/24 09:23:19;;;;;;;53.75;21.92;;;;;;;21.51;65.25;100597.69;5012908;28;20032;-83
2023/05/24 09:25:46;;;;;;;26.63;17.65;;;;;;;21.63;64.45;100588.75;5013154;28;20034;-83
2023/05/24 09:28:19;;;;;;;36.25;23.08;;;;;;;21.57;64.56;100581.34;5012462;28;20021;-85
2023/05/24 09:30:57;;;;;;;194.57;36.70;;;;;;;21.87;64.30;100592.09;5012673;28;20041;-82
2023/05/24 09:33:28;;;;;;;48.05;22.30;;;;;;;21.77;63.48;100587.00;5013911;28;20021;-85
2023/05/24 09:35:57;;;;;;;26.23;17.77;;;;;;;21.79;63.01;100595.84;5012285;28;20076;-84
2023/05/24 09:38:24;;;;;;;28.77;17.73;;;;;;;21.64;63.29;100593.19;5012851;28;20723;-85
2023/05/24 09:40:58;;;;;;;25.77;18.92;;;;;;;21.35;64.01;100565.97;5012285;28;20446;-82
2023/05/24 09:43:25;;;;;;;35.25;18.83;;;;;;;21.51;63.59;100565.69;5012419;28;20026;-84
2023/05/24 09:45:52;;;;;;;47.03;17.60;;;;;;;21.47;62.71;100567.13;5013651;28;20052;-83
2023/05/24 09:48:19;;;;;;;28.30;14.15;;;;;;;21.39;62.91;100575.47;4995110;28;20076;-83
2023/05/24 09:50:58;;;;;;;21.30;12.52;;;;;;;21.44;62.69;100569.41;5012414;28;20040;-83
2023/05/24 09:53:25;;;;;;;57.67;13.85;;;;;;;21.38;62.80;100565.56;4994499;28;20033;-85
2023/05/24 09:55:53;;;;;;;24.10;11.45;;;;;;;21.38;62.32;100584.72;4994806;28;20030;-83
2023/05/24 09:58:18;;;;;;;33.22;11.13;;;;;;;21.47;62.25;100585.44;4994003;28;20030;-82
2023/05/24 10:00:44;;;;;;;24.80;12.60;;;;;;;21.50;61.90;100583.16;5012295;28;20060;-81
2023/05/24 10:03:11;;;;;;;23.60;14.23;;;;;;;21.44;63.19;100586.66;5013462;28;20071;-82
2023/05/24 10:05:37;;;;;;;32.55;14.82;;;;;;;21.50;63.87;100595.97;5012819;28;20025;-83
2023/05/24 10:08:08;;;;;;;28.02;14.55;;;;;;;21.56;64.12;100585.09;5015804;28;20036;-82
2023/05/24 10:10:33;;;;;;;23.20;13.15;;;;;;;21.67;64.67;100570.03;5019872;28;20033;-82
2023/05/24 10:13:00;;;;;;;28.13;13.57;;;;;;;21.91;65.61;100587.94;5017307;28;20052;-84
2023/05/24 10:15:26;;;;;;;27.45;10.15;;;;;;;21.97;63.16;100573.47;5012620;28;20030;-84
2023/05/24 10:17:53;;;;;;;24.90;10.50;;;;;;;22.06;62.45;100585.97;5013364;28;20049;-83
2023/05/24 10:20:18;;;;;;;27.30;10.45;;;;;;;22.30;61.64;100598.31;5015693;28;20797;-84
2023/05/24 10:22:46;;;;;;;18.83;9.25;;;;;;;22.34;62.06;100584.03;5014735;28;20053;-83
2023/05/24 10:25:20;;;;;;;26.92;9.93;;;;;;;22.44;62.90;100587.25;5011481;28;20060;-81
2023/05/24 10:27:50;;;;;;;19.95;9.60;;;;;;;22.54;62.90;100584.97;5011829;28;20022;-83
2023/05/24 10:30:33;;;;;;;23.85;10.18;;;;;;;22.38;63.70;100585.34;5011693;28;20021;-83
2023/05/24 10:33:01;;;;;;;22.33;8.93;;;;;;;22.04;64.15;100572.47;5011716;28;20021;-83
2023/05/24 10:35:28;;;;;;;33.63;10.35;;;;;;;21.97;64.83;100567.97;5011316;28;20080;-81
2023/05/24 10:37:53;;;;;;;16.90;8.98;;;;;;;21.81;64.47;100576.47;5011680;28;20030;-82
2023/05/24 10:40:24;;;;;;;21.65;9.07;;;;;;;21.97;64.77;100576.19;5011904;28;20464;-83
2023/05/24 10:42:51;;;;;;;18.02;9.80;;;;;;;22.05;63.64;100562.34;4997104;28;20056;-85
2023/05/24 10:45:22;;;;;;;18.38;8.30;;;;;;;22.24;63.20;100581.66;5011410;28;20102;-82
2023/05/24 10:47:48;;;;;;;14.05;7.78;;;;;;;22.23;62.65;100570.91;5011223;28;20048;-82
2023/05/24 10:50:17;;;;;;;21.42;8.25;;;;;;;22.30;64.10;100566.28;5010782;28;20037;-82
2023/05/24 10:52:43;;;;;;;27.67;8.55;;;;;;;22.40;64.05;100566.78;5011158;28;20117;-82
2023/05/24 10:55:10;;;;;;;33.00;10.48;;;;;;;22.33;63.83;100565.88;5011206;28;20113;-83
2023/05/24 10:57:37;;;;;;;20.35;7.75;;;;;;;22.50;62.95;100559.03;5011549;28;20057;-81
2023/05/24 11:00:26;;;;;;;13.75;7.60;;;;;;;22.56;62.27;100560.97;5011876;28;20041;-82
2023/05/24 11:03:02;;;;;;;20.80;8.15;;;;;;;22.41;63.30;100545.72;5011183;28;20041;-82
2023/05/24 11:05:50;;;;;;;15.13;7.90;;;;;;;22.27;62.65;100550.25;5016142;28;20489;-84
2023/05/24 11:08:23;;;;;;;18.80;7.22;;;;;;;22.09;64.69;100549.94;5019045;28;20022;-82
2023/05/24 11:10:49;;;;;;;24.25;8.80;;;;;;;22.23;65.13;100565.44;5017677;28;20053;-83